createdAt,value
2019-03-18T00:01:01.233Z,12.69
2019-03-18T00:03:32.024Z,12.69
2019-03-18T00:06:02.752Z,12.66
2019-03-18T00:08:33.106Z,12.72
2019-03-18T00:11:03.487Z,12.87
2019-03-18T00:13:34.133Z,12.78
2019-03-18T00:16:04.859Z,12.68
2019-03-18T00:18:35.482Z,12.62
2019-03-18T00:21:06.099Z,12.72
2019-03-18T00:23:36.546Z,12.58
2019-03-18T00:26:07.021Z,12.66
2019-03-18T00:28:37.710Z,12.66
2019-03-18T00:31:08.225Z,12.74
2019-03-18T00:33:38.823Z,12.70
2019-03-18T00:36:09.536Z,12.52
2019-03-18T00:38:40.160Z,12.46
2019-03-18T00:41:10.888Z,12.17
2019-03-18T00:43:41.348Z,12.19
2019-03-18T00:46:14.272Z,12.21
2019-03-18T00:48:44.850Z,12.19
2019-03-18T00:51:15.608Z,12.13
2019-03-18T00:53:46.275Z,11.95
2019-03-18T00:56:16.971Z,11.89
2019-03-18T00:58:48.987Z,11.77
2019-03-18T01:01:19.681Z,11.62
2019-03-18T01:03:52.379Z,11.40
2019-03-18T01:06:22.740Z,11.24
2019-03-18T01:08:53.317Z,11.48
2019-03-18T01:11:23.849Z,11.37
2019-03-18T01:13:54.230Z,11.26
2019-03-18T01:16:24.826Z,11.24
2019-03-18T01:18:55.216Z,11.17
2019-03-18T01:21:26.046Z,11.24
2019-03-18T01:23:56.760Z,11.21
2019-03-18T01:26:27.228Z,11.22
2019-03-18T01:28:57.630Z,11.19
2019-03-18T01:31:28.337Z,11.22
2019-03-18T01:33:58.892Z,11.13
2019-03-18T01:36:29.373Z,11.24
2019-03-18T01:38:59.903Z,11.12
2019-03-18T01:41:30.344Z,11.21
2019-03-18T01:44:00.922Z,11.07
2019-03-18T01:46:31.677Z,11.17
2019-03-18T01:49:02.105Z,11.13
2019-03-18T01:51:32.569Z,11.35
2019-03-18T01:54:03.253Z,11.41
2019-03-18T01:56:33.711Z,11.28
2019-03-18T01:59:04.140Z,11.22
2019-03-18T02:01:34.665Z,11.24
2019-03-18T02:04:05.626Z,11.26
2019-03-18T02:06:36.004Z,11.33
2019-03-18T02:09:07.588Z,11.46
2019-03-18T02:11:37.992Z,11.52
2019-03-18T02:14:08.338Z,11.44
2019-03-18T02:16:39.095Z,11.20
2019-03-18T02:19:11.916Z,11.14
2019-03-18T02:21:42.434Z,11.11
2019-03-18T02:24:12.912Z,11.06
2019-03-18T02:26:43.729Z,10.69
2019-03-18T02:29:14.367Z,10.65
2019-03-18T02:31:44.678Z,10.80
2019-03-18T02:34:15.533Z,10.87
2019-03-18T02:36:46.100Z,10.74
2019-03-18T02:39:16.787Z,10.57
2019-03-18T02:41:47.499Z,10.42
2019-03-18T02:44:17.979Z,10.27
2019-03-18T02:46:48.572Z,10.18
2019-03-18T02:49:19.125Z,10.14
2019-03-18T02:51:52.760Z,10.10
2019-03-18T02:54:21.850Z,10.08
2019-03-18T02:56:52.218Z,10.07
2019-03-18T02:59:22.781Z,10.03
2019-03-18T03:01:53.620Z,10.00
2019-03-18T03:04:24.202Z,9.99
2019-03-18T03:06:54.783Z,9.85
2019-03-18T03:09:25.241Z,9.81
2019-03-18T03:11:56.005Z,9.97
2019-03-18T03:14:26.505Z,9.93
2019-03-18T03:16:57.227Z,10.05
2019-03-18T03:19:27.908Z,9.92
2019-03-18T03:21:58.465Z,9.79
2019-03-18T03:24:28.934Z,9.81
2019-03-18T03:26:59.508Z,9.97
2019-03-18T03:29:29.954Z,10.22
2019-03-18T03:32:00.536Z,10.27
2019-03-18T03:34:31.035Z,10.23
2019-03-18T03:37:01.833Z,10.16
2019-03-18T03:39:32.341Z,10.04
2019-03-18T03:42:02.985Z,10.06
2019-03-18T03:44:33.747Z,10.14
2019-03-18T03:47:04.518Z,10.14
2019-03-18T03:49:35.120Z,10.10
2019-03-18T03:52:05.870Z,10.11
2019-03-18T03:54:36.341Z,10.12
2019-03-18T03:57:10.106Z,10.12
2019-03-18T03:59:40.975Z,9.95
2019-03-18T04:02:11.552Z,9.81
2019-03-18T04:04:41.818Z,9.79
2019-03-18T04:07:12.305Z,9.71
2019-03-18T04:09:42.753Z,9.64
2019-03-18T04:12:13.446Z,9.66
2019-03-18T04:14:43.937Z,9.59
2019-03-18T04:17:14.461Z,9.63
2019-03-18T04:19:45.034Z,9.58
2019-03-18T04:22:15.465Z,9.73
2019-03-18T04:24:46.345Z,9.77
2019-03-18T04:27:16.865Z,9.79
2019-03-18T04:29:47.441Z,9.75
2019-03-18T04:32:18.084Z,9.70
2019-03-18T04:34:48.342Z,9.65
2019-03-18T04:37:18.748Z,9.57
2019-03-18T04:39:49.355Z,9.42
2019-03-18T04:42:20.022Z,9.58
2019-03-18T04:44:50.576Z,9.63
2019-03-18T04:47:21.164Z,9.64
2019-03-18T04:49:51.845Z,9.58
2019-03-18T04:52:25.425Z,9.58
2019-03-18T04:54:55.917Z,9.61
2019-03-18T04:57:26.384Z,9.56
2019-03-18T04:59:57.108Z,9.61
2019-03-18T05:02:27.749Z,9.61
2019-03-18T05:04:58.190Z,9.60
2019-03-18T05:07:28.690Z,9.69
2019-03-18T05:09:59.528Z,9.85
2019-03-18T05:12:30.245Z,9.88
2019-03-18T05:15:00.742Z,9.94
2019-03-18T05:17:31.263Z,10.04
2019-03-18T05:20:01.669Z,10.13
2019-03-18T05:22:32.278Z,10.00
2019-03-18T05:25:03.023Z,10.07
2019-03-18T05:27:33.744Z,10.16
2019-03-18T05:30:04.020Z,10.35
2019-03-18T05:32:34.304Z,10.38
2019-03-18T05:35:04.988Z,10.56
2019-03-18T05:37:35.753Z,10.62
2019-03-18T05:40:06.687Z,10.66
2019-03-18T05:42:37.255Z,10.64
2019-03-18T05:45:08.186Z,10.78
2019-03-18T05:47:39.911Z,10.92
2019-03-18T05:50:10.803Z,10.92
2019-03-18T05:52:41.239Z,10.97
2019-03-18T05:55:11.979Z,11.18
2019-03-18T05:57:42.557Z,11.38
2019-03-18T06:00:13.365Z,11.40
2019-03-18T06:02:46.835Z,11.48
2019-03-18T06:05:16.267Z,11.61
2019-03-18T06:07:46.773Z,11.69
2019-03-18T06:10:17.557Z,11.88
2019-03-18T06:12:48.085Z,12.00
2019-03-18T06:15:18.774Z,12.08
2019-03-18T06:17:53.082Z,12.15
2019-03-18T06:20:23.834Z,12.23
2019-03-18T06:22:54.604Z,12.35
2019-03-18T06:25:25.016Z,12.42
2019-03-18T06:27:55.463Z,12.49
2019-03-18T06:30:26.249Z,12.54
2019-03-18T06:32:56.917Z,12.64
2019-03-18T06:35:27.259Z,12.74
2019-03-18T06:37:57.719Z,12.85
2019-03-18T06:40:28.315Z,12.97
2019-03-18T06:42:58.609Z,13.08
2019-03-18T06:45:29.397Z,13.21
2019-03-18T06:48:04.921Z,13.30
2019-03-18T06:50:32.152Z,13.43
2019-03-18T06:53:02.938Z,13.53
2019-03-18T06:55:33.670Z,13.62
2019-03-18T06:58:04.395Z,13.72
2019-03-18T07:00:34.798Z,13.84
2019-03-18T07:03:05.247Z,13.94
2019-03-18T07:05:35.927Z,14.03
2019-03-18T07:08:06.437Z,14.17
2019-03-18T07:10:37.022Z,14.26
2019-03-18T07:13:07.522Z,14.40
2019-03-18T07:15:38.034Z,14.61
2019-03-18T07:21:05.131Z,15.45
2019-03-18T07:23:35.254Z,17.23
2019-03-18T07:26:05.948Z,19.22
2019-03-18T07:28:37.440Z,21.11
2019-03-18T07:31:08.050Z,23.07
2019-03-18T07:33:38.457Z,24.79
2019-03-18T07:36:08.912Z,26.04
2019-03-18T07:38:42.614Z,26.75
2019-03-18T07:41:13.046Z,27.24
2019-03-18T07:43:43.600Z,27.64
2019-03-18T07:46:13.998Z,27.75
2019-03-18T07:48:44.816Z,27.40
2019-03-18T07:51:14.997Z,27.12
2019-03-18T07:53:45.504Z,27.07
2019-03-18T07:56:16.193Z,27.48
2019-03-18T07:58:46.702Z,28.31
2019-03-18T08:01:17.454Z,29.34
2019-03-18T08:03:48.006Z,30.40
2019-03-18T08:06:18.613Z,31.34
2019-03-18T08:08:49.251Z,32.56
2019-03-18T08:11:20.032Z,32.60
2019-03-18T08:13:50.481Z,33.84
2019-03-18T08:16:21.006Z,35.01
2019-03-18T08:18:51.513Z,35.53
2019-03-18T08:21:26.257Z,35.91
2019-03-18T08:23:56.895Z,35.93
2019-03-18T08:37:14.588Z,35.53
2019-03-18T08:40:16.170Z,35.82
2019-03-18T08:47:13.631Z,36.88
2019-03-18T08:49:46.415Z,37.24
2019-03-18T08:52:18.619Z,37.37
2019-03-18T08:55:17.188Z,36.75
2019-03-18T08:57:47.499Z,36.54
2019-03-18T09:00:18.178Z,37.45
2019-03-18T09:02:49.577Z,37.97
2019-03-18T09:06:02.072Z,38.17
2019-03-18T09:08:48.976Z,38.46
2019-03-18T09:11:18.951Z,38.19
2019-03-18T09:13:49.309Z,37.72
2019-03-18T09:16:19.928Z,38.55
2019-03-18T09:18:50.225Z,37.51
2019-03-18T09:21:58.418Z,38.54
2019-03-18T09:27:36.408Z,40.31
2019-03-18T09:30:15.646Z,40.84
2019-03-18T09:32:46.246Z,38.45
2019-03-18T09:38:44.823Z,39.06
2019-03-18T09:41:15.093Z,39.45
2019-03-18T09:43:45.523Z,37.71
2019-03-18T09:46:16.196Z,38.23
2019-03-18T09:48:46.783Z,37.04
2019-03-18T09:52:04.340Z,35.16
2019-03-18T09:54:35.101Z,36.75
2019-03-18T09:58:00.199Z,38.10
2019-03-18T10:00:32.352Z,36.87
2019-03-18T10:03:02.929Z,38.23
2019-03-18T10:05:35.731Z,40.08
2019-03-18T10:08:06.215Z,41.07
2019-03-18T10:10:36.844Z,42.01
2019-03-18T10:16:35.350Z,42.91
2019-03-18T10:19:07.232Z,39.78
2019-03-18T10:21:37.374Z,41.35
2019-03-18T10:24:07.520Z,41.78
2019-03-18T10:26:37.985Z,40.32
2019-03-18T10:29:08.431Z,41.65
2019-03-18T10:31:38.472Z,42.56
2019-03-18T10:34:08.826Z,42.65
2019-03-18T10:36:39.344Z,43.02
2019-03-18T10:39:09.443Z,43.10
2019-03-18T10:41:39.939Z,42.92
2019-03-18T10:44:10.619Z,42.90
2019-03-18T10:46:40.698Z,43.76
2019-03-18T10:49:10.967Z,43.64
2019-03-18T10:51:41.338Z,42.94
2019-03-18T10:54:11.875Z,42.32
2019-03-18T10:56:42.520Z,42.03
2019-03-18T10:59:13.014Z,40.26
2019-03-18T11:01:43.461Z,41.01
2019-03-18T11:04:13.870Z,43.02
2019-03-18T11:06:44.528Z,44.13
2019-03-18T11:09:15.003Z,44.88
2019-03-18T11:11:45.488Z,44.03
2019-03-18T11:14:15.903Z,43.83
2019-03-18T11:16:46.481Z,44.09
2019-03-18T11:19:17.147Z,43.63
2019-03-18T11:21:47.953Z,43.41
2019-03-18T11:24:18.607Z,43.60
2019-03-18T11:26:49.120Z,42.84
2019-03-18T11:29:19.678Z,42.99
2019-03-18T11:31:50.339Z,43.67
2019-03-18T11:34:20.764Z,42.08
2019-03-18T11:36:51.258Z,42.01
2019-03-18T11:39:21.707Z,42.08
2019-03-18T11:41:52.198Z,41.84
2019-03-18T11:44:22.567Z,41.41
2019-03-18T11:46:53.009Z,40.00
2019-03-18T11:49:23.590Z,41.37
2019-03-18T11:51:54.202Z,41.21
2019-03-18T11:54:24.828Z,42.01
2019-03-18T11:56:55.567Z,42.42
2019-03-18T11:59:25.986Z,42.08
2019-03-18T12:01:56.450Z,39.58
2019-03-18T12:04:27.059Z,39.47
2019-03-18T12:06:57.626Z,39.75
2019-03-18T12:09:28.099Z,41.14
2019-03-18T12:11:58.617Z,40.43
2019-03-18T12:14:29.100Z,40.95
2019-03-18T12:16:59.477Z,40.54
2019-03-18T12:19:29.965Z,40.36
2019-03-18T12:22:00.576Z,39.37
2019-03-18T12:24:30.927Z,39.48
2019-03-18T12:27:01.158Z,40.29
2019-03-18T12:29:31.683Z,40.16
2019-03-18T12:32:01.988Z,40.03
2019-03-18T12:34:32.417Z,40.15
2019-03-18T12:37:02.807Z,39.89
2019-03-18T12:39:33.456Z,40.89
2019-03-18T12:42:03.927Z,40.10
2019-03-18T12:44:34.519Z,39.40
2019-03-18T12:47:05.384Z,40.53
2019-03-18T12:49:36.081Z,40.86
2019-03-18T12:52:06.797Z,40.46
2019-03-18T12:54:37.325Z,39.77
2019-03-18T12:57:08.001Z,39.05
2019-03-18T12:59:38.692Z,38.31
2019-03-18T13:02:09.303Z,39.04
2019-03-18T13:04:40.029Z,38.91
2019-03-18T13:07:10.716Z,38.81
2019-03-18T13:09:41.206Z,38.85
2019-03-18T13:12:13.223Z,38.10
2019-03-18T13:14:43.972Z,38.01
2019-03-18T13:17:14.742Z,38.00
2019-03-18T13:19:45.539Z,36.90
2019-03-18T13:22:16.089Z,36.74
2019-03-18T13:24:46.689Z,36.87
2019-03-18T13:27:17.246Z,37.67
2019-03-18T13:29:47.629Z,37.26
2019-03-18T13:32:18.118Z,35.58
2019-03-18T13:34:48.458Z,35.18
2019-03-18T13:37:18.935Z,35.05
2019-03-18T13:39:49.485Z,34.32
2019-03-18T13:42:20.010Z,33.59
2019-03-18T13:44:50.660Z,32.23
2019-03-18T13:47:20.985Z,30.05
2019-03-18T13:49:51.687Z,29.81
2019-03-18T13:52:22.264Z,29.81
2019-03-18T13:54:52.652Z,29.31
2019-03-18T13:57:23.128Z,28.55
2019-03-18T13:59:53.766Z,28.54
2019-03-18T14:02:24.405Z,28.33
2019-03-18T14:04:55.167Z,27.77
2019-03-18T14:07:25.933Z,26.88
2019-03-18T14:09:56.642Z,26.92
2019-03-18T14:12:27.244Z,26.85
2019-03-18T14:14:57.793Z,26.95
2019-03-18T14:17:28.480Z,26.85
2019-03-18T14:20:00.687Z,26.54
2019-03-18T14:22:31.210Z,26.52
2019-03-18T14:25:01.699Z,26.54
2019-03-18T14:27:32.317Z,26.59
2019-03-18T14:30:03.079Z,26.10
2019-03-18T14:32:33.543Z,26.11
2019-03-18T14:35:04.171Z,25.86
2019-03-18T14:37:34.957Z,25.73
2019-03-18T14:40:06.138Z,25.88
2019-03-18T14:42:36.494Z,25.73
2019-03-18T14:45:07.509Z,25.77
2019-03-18T14:47:38.133Z,25.65
2019-03-18T14:50:09.291Z,25.52
2019-03-18T14:52:39.721Z,25.42
2019-03-18T14:55:10.456Z,25.19
2019-03-18T14:57:41.289Z,25.18
2019-03-18T15:00:16.031Z,25.20
2019-03-18T15:02:46.407Z,24.96
2019-03-18T15:05:17.242Z,24.96
2019-03-18T15:07:47.754Z,25.05
2019-03-18T15:10:18.311Z,24.84
2019-03-18T15:12:48.743Z,24.88
2019-03-18T15:15:19.590Z,24.89
2019-03-18T15:17:49.899Z,24.63
2019-03-18T15:20:20.413Z,24.68
2019-03-18T15:22:50.917Z,24.61
2019-03-18T15:25:22.425Z,24.63
2019-03-18T15:27:52.967Z,24.62
2019-03-18T15:30:23.506Z,24.55
2019-03-18T15:32:53.918Z,24.27
2019-03-18T15:35:24.354Z,24.45
2019-03-18T15:37:54.902Z,24.32
2019-03-18T15:40:25.466Z,23.94
2019-03-18T15:42:56.224Z,24.09
2019-03-18T15:45:26.664Z,24.07
2019-03-18T15:47:56.912Z,23.84
2019-03-18T15:50:27.685Z,23.97
2019-03-18T15:52:58.370Z,23.79
2019-03-18T15:55:28.924Z,23.62
2019-03-18T15:57:59.562Z,23.56
2019-03-18T16:00:30.245Z,23.50
2019-03-18T16:03:00.769Z,23.49
2019-03-18T16:05:31.383Z,23.40
2019-03-18T16:08:02.090Z,23.28
2019-03-18T16:10:32.798Z,23.07
2019-03-18T16:13:03.347Z,22.95
2019-03-18T16:15:33.825Z,22.81
2019-03-18T16:18:04.374Z,22.77
2019-03-18T16:20:34.911Z,22.62
2019-03-18T16:23:05.434Z,22.46
2019-03-18T16:25:35.888Z,22.40
2019-03-18T16:28:06.379Z,22.25
2019-03-18T16:30:36.959Z,22.13
2019-03-18T16:33:07.384Z,22.00
2019-03-18T16:35:38.292Z,21.79
2019-03-18T16:38:08.807Z,21.56
2019-03-18T16:40:39.321Z,21.34
2019-03-18T16:43:09.967Z,21.31
2019-03-18T16:45:40.548Z,21.14
2019-03-18T16:48:11.058Z,20.92
2019-03-18T16:50:42.317Z,20.72
2019-03-18T16:53:12.831Z,20.66
2019-03-18T16:55:43.285Z,20.57
2019-03-18T16:58:13.697Z,20.48
2019-03-18T17:00:44.254Z,20.38
2019-03-18T17:03:14.627Z,20.21
2019-03-18T17:05:45.122Z,20.25
2019-03-18T17:08:15.523Z,20.12
2019-03-18T17:10:46.204Z,19.83
2019-03-18T17:13:16.627Z,19.53
2019-03-18T17:15:47.245Z,19.36
2019-03-18T17:18:18.155Z,19.18
2019-03-18T17:20:49.323Z,19.07
2019-03-18T17:23:20.244Z,18.98
2019-03-18T17:25:50.842Z,18.95
2019-03-18T17:28:21.572Z,18.97
2019-03-18T17:30:52.198Z,19.05
2019-03-18T17:33:24.877Z,19.15
2019-03-18T17:35:55.700Z,19.34
2019-03-18T17:38:26.107Z,19.37
2019-03-18T17:40:56.725Z,19.39
2019-03-18T17:43:27.418Z,19.57
2019-03-18T17:45:58.047Z,19.58
2019-03-18T17:48:28.613Z,19.60
2019-03-18T17:50:59.076Z,19.60
2019-03-18T17:53:29.764Z,19.65
2019-03-18T17:56:02.627Z,19.66
2019-03-18T17:58:33.309Z,19.64
2019-03-18T18:01:03.970Z,19.70
2019-03-18T18:03:34.352Z,19.61
2019-03-18T18:06:05.161Z,19.65
2019-03-18T18:08:35.739Z,19.53
2019-03-18T18:11:06.125Z,19.38
2019-03-18T18:13:36.485Z,19.24
2019-03-18T18:16:07.237Z,19.24
2019-03-18T18:18:40.527Z,19.00
2019-03-18T18:21:10.830Z,18.78
2019-03-18T18:23:41.920Z,18.65
2019-03-18T18:26:12.526Z,18.54
2019-03-18T18:28:43.033Z,18.49
2019-03-18T18:31:13.492Z,18.45
2019-03-18T18:33:43.922Z,18.39
2019-03-18T18:36:14.708Z,18.27
2019-03-18T18:38:45.347Z,18.20
2019-03-18T18:41:16.018Z,18.21
2019-03-18T18:43:47.293Z,17.90
2019-03-18T18:46:18.431Z,17.70
2019-03-18T18:48:49.158Z,17.57
2019-03-18T18:51:19.669Z,17.40
2019-03-18T18:53:50.189Z,17.14
2019-03-18T18:56:21.056Z,17.12
2019-03-18T18:58:51.950Z,17.10
2019-03-18T19:01:24.200Z,16.81
2019-03-18T19:03:55.059Z,16.61
2019-03-18T19:06:25.610Z,16.53
2019-03-18T19:08:56.282Z,16.51
2019-03-18T19:11:26.950Z,16.49
2019-03-18T19:13:57.371Z,16.41
2019-03-18T19:16:28.021Z,16.46
2019-03-18T19:18:58.868Z,16.31
2019-03-18T19:21:29.549Z,16.28
2019-03-18T19:24:00.211Z,16.20
2019-03-18T19:26:30.955Z,16.11
2019-03-18T19:29:01.766Z,16.08
2019-03-18T19:31:32.579Z,15.99
2019-03-18T19:34:02.980Z,15.91
2019-03-18T19:36:33.668Z,15.98
2019-03-18T19:39:07.383Z,15.88
2019-03-18T19:41:40.137Z,15.92
2019-03-18T19:44:10.086Z,15.71
2019-03-18T19:46:41.153Z,15.53
2019-03-18T19:49:11.767Z,15.45
2019-03-18T19:51:42.298Z,15.43
2019-03-18T19:54:13.118Z,15.23
2019-03-18T19:56:44.257Z,15.37
2019-03-18T19:59:15.772Z,15.28
2019-03-18T20:01:46.372Z,15.15
2019-03-18T20:04:16.945Z,15.12
2019-03-18T20:06:47.510Z,14.92
2019-03-18T20:09:18.514Z,14.86
2019-03-18T20:11:49.865Z,14.91
2019-03-18T20:14:20.662Z,14.84
2019-03-18T20:16:51.241Z,14.95
2019-03-18T20:19:21.827Z,14.84
2019-03-18T20:21:52.597Z,14.63
2019-03-18T20:24:23.134Z,14.69
2019-03-18T20:26:53.816Z,14.71
2019-03-18T20:29:24.636Z,14.70
2019-03-18T20:31:55.534Z,14.48
2019-03-18T20:34:28.101Z,14.28
2019-03-18T20:36:58.535Z,14.27
2019-03-18T20:39:29.178Z,14.26
2019-03-18T20:42:00.031Z,14.21
2019-03-18T20:44:30.924Z,14.10
2019-03-18T20:47:01.477Z,14.21
2019-03-18T20:49:35.062Z,14.36
2019-03-18T20:52:16.255Z,14.19
2019-03-18T20:54:38.409Z,14.15
2019-03-18T20:57:09.191Z,14.20
2019-03-18T20:59:42.476Z,14.17
2019-03-18T21:02:13.021Z,13.98
2019-03-18T21:04:43.819Z,13.92
2019-03-18T21:07:16.950Z,13.74
2019-03-18T21:09:46.950Z,13.53
2019-03-18T21:12:20.034Z,13.44
2019-03-18T21:14:50.502Z,13.46
2019-03-18T21:17:21.368Z,13.38
2019-03-18T21:19:52.107Z,13.33
2019-03-18T21:22:24.218Z,13.30
2019-03-18T21:24:54.765Z,13.35
2019-03-18T21:27:25.550Z,13.35
2019-03-18T21:29:56.309Z,13.39
2019-03-18T21:32:28.385Z,13.38
2019-03-18T21:34:58.988Z,13.41
2019-03-18T21:37:29.772Z,13.39
2019-03-18T21:40:00.464Z,13.30
2019-03-18T21:42:31.496Z,13.37
2019-03-18T21:45:02.011Z,13.35
2019-03-18T21:47:34.357Z,13.30
2019-03-18T21:50:05.001Z,13.33
2019-03-18T21:52:35.763Z,13.33
2019-03-18T21:55:06.729Z,13.30
2019-03-18T21:57:37.486Z,13.31
2019-03-18T22:00:11.064Z,13.19
2019-03-18T22:02:42.081Z,13.11
2019-03-18T22:05:16.703Z,13.15
2019-03-18T22:07:47.492Z,13.21
2019-03-18T22:10:18.380Z,13.11
2019-03-18T22:12:49.219Z,13.02
2019-03-18T22:15:20.069Z,12.96
2019-03-18T22:17:50.929Z,12.94
2019-03-18T22:20:23.357Z,12.90
2019-03-18T22:22:53.767Z,12.95
2019-03-18T22:25:24.528Z,12.97
2019-03-18T22:27:58.223Z,12.84
2019-03-18T22:30:29.098Z,12.83
2019-03-18T22:32:59.700Z,12.84
2019-03-18T22:35:30.488Z,12.80
2019-03-18T22:38:01.525Z,12.73
2019-03-18T22:40:32.252Z,12.65
2019-03-18T22:43:02.844Z,12.63
2019-03-18T22:45:33.497Z,12.64
2019-03-18T22:48:04.338Z,12.74
2019-03-18T22:50:34.806Z,12.72
2019-03-18T22:53:05.445Z,12.60
2019-03-18T22:55:36.252Z,12.72
2019-03-18T22:58:07.111Z,12.54
2019-03-18T23:00:47.108Z,12.58
2019-03-18T23:03:18.029Z,12.52
2019-03-18T23:05:50.176Z,12.41
2019-03-18T23:08:20.763Z,12.38
2019-03-18T23:10:53.518Z,12.33
2019-03-18T23:13:24.350Z,12.30
2019-03-18T23:15:55.146Z,12.30
2019-03-18T23:18:25.826Z,12.26
2019-03-18T23:20:56.614Z,12.22
2019-03-18T23:23:27.958Z,12.13
2019-03-18T23:25:58.684Z,12.11
2019-03-18T23:28:29.212Z,12.22
2019-03-18T23:30:59.675Z,12.15
2019-03-18T23:33:30.308Z,12.08
2019-03-18T23:36:03.770Z,12.11
2019-03-18T23:38:34.455Z,12.24
2019-03-18T23:41:05.013Z,12.18
2019-03-18T23:43:36.999Z,12.08
2019-03-18T23:46:07.538Z,12.02
2019-03-18T23:48:39.162Z,11.97
2019-03-18T23:51:10.106Z,11.90
2019-03-18T23:53:40.622Z,11.97
2019-03-18T23:56:11.407Z,12.01
2019-03-18T23:58:41.914Z,12.00
